createdAt,value
2023-07-24T00:00:43.311Z,95927.09
2023-07-24T00:05:46.216Z,95933.34
2023-07-24T00:10:49.287Z,95915.53
2023-07-24T00:15:53.589Z,95917.94
2023-07-24T00:20:56.531Z,95895.09
2023-07-24T00:25:59.367Z,95890.78
2023-07-24T00:31:05.220Z,95878.88
2023-07-24T00:36:08.290Z,95866.69
2023-07-24T00:41:12.624Z,95854.63
2023-07-24T00:46:17.007Z,95838.72
2023-07-24T00:51:20.068Z,95836.97
2023-07-24T00:56:23.200Z,95830.69
2023-07-24T01:01:28.036Z,95814.31
2023-07-24T01:06:31.400Z,95811.09
2023-07-24T01:11:39.434Z,95796.94
2023-07-24T01:16:44.502Z,95771.25
2023-07-24T01:21:59.167Z,95769.94
2023-07-24T01:27:03.543Z,95749.22
2023-07-24T01:32:07.590Z,95758.88
2023-07-24T01:37:11.790Z,95763.19
2023-07-24T01:42:16.455Z,95752.28
2023-07-24T01:47:19.503Z,95752.75
2023-07-24T01:52:22.418Z,95751.00
2023-07-24T01:57:26.624Z,95735.06
2023-07-24T02:02:29.539Z,95765.13
2023-07-24T02:07:32.731Z,95769.66
2023-07-24T02:12:36.981Z,95821.34
2023-07-24T02:17:40.134Z,95884.50
2023-07-24T02:22:43.092Z,95975.72
2023-07-24T02:27:47.279Z,95978.13
2023-07-24T02:32:50.475Z,96029.84
2023-07-24T02:37:53.359Z,96081.53
2023-07-24T02:42:57.555Z,96077.00
2023-07-24T02:48:01.171Z,96067.69
2023-07-24T02:53:05.169Z,96022.91
2023-07-24T02:58:09.430Z,95842.56
2023-07-24T03:03:12.558Z,95903.75
2023-07-24T03:08:15.507Z,95956.41
2023-07-24T03:13:19.848Z,95980.03
2023-07-24T03:18:22.796Z,95945.97
2023-07-24T03:23:25.712Z,95911.44
2023-07-24T03:28:29.929Z,95895.56
2023-07-24T03:33:32.796Z,95896.69
2023-07-24T03:38:35.965Z,95920.44
2023-07-24T03:43:40.942Z,95938.75
2023-07-24T03:48:43.851Z,95953.53
2023-07-24T03:53:47.428Z,95993.34
2023-07-24T03:58:51.819Z,95974.06
2023-07-24T04:03:54.911Z,95975.19
2023-07-24T04:08:57.821Z,95964.94
2023-07-24T04:14:02.023Z,95889.59
2023-07-24T04:19:05.308Z,95844.97
2023-07-24T04:24:08.346Z,95887.38
2023-07-24T04:29:13.634Z,95878.38
2023-07-24T04:34:17.871Z,95862.31
2023-07-24T04:39:20.762Z,95869.69
2023-07-24T04:44:24.982Z,95884.78
2023-07-24T04:49:29.807Z,95918.16
2023-07-24T04:54:32.676Z,95937.28
2023-07-24T04:59:36.845Z,95919.28
2023-07-24T05:04:39.740Z,95891.22
2023-07-24T05:09:42.613Z,95867.28
2023-07-24T05:14:46.878Z,95842.09
2023-07-24T05:19:49.817Z,95828.09
2023-07-24T05:24:52.714Z,95875.63
2023-07-24T05:29:56.964Z,95897.47
2023-07-24T05:34:59.829Z,95956.22
2023-07-24T05:40:02.740Z,95932.28
2023-07-24T05:45:08.509Z,95944.81
2023-07-24T05:50:14.401Z,95990.22
2023-07-24T05:55:17.769Z,96007.22
2023-07-24T06:00:22.118Z,95915.09
2023-07-24T06:05:25.326Z,95837.91
2023-07-24T06:10:28.227Z,95843.13
2023-07-24T06:15:32.814Z,95877.00
2023-07-24T06:20:35.643Z,95868.34
2023-07-24T06:25:38.567Z,95868.34
2023-07-24T06:30:42.911Z,95877.97
2023-07-24T06:35:47.379Z,95849.09
2023-07-24T06:40:50.330Z,95873.66
2023-07-24T06:45:54.580Z,95893.53
2023-07-24T06:50:58.863Z,95895.31
2023-07-24T06:56:01.896Z,95893.38
2023-07-24T07:01:08.892Z,95905.84
2023-07-24T07:06:28.227Z,95920.97
2023-07-24T07:11:32.576Z,95907.31
2023-07-24T07:16:36.975Z,95901.22
2023-07-24T07:21:39.908Z,95838.47
2023-07-24T07:26:42.858Z,95800.75
2023-07-24T07:31:47.082Z,95801.56
2023-07-24T07:36:50.002Z,95801.06
2023-07-24T07:42:01.198Z,95838.56
2023-07-24T07:47:16.322Z,95838.66
2023-07-24T07:52:19.306Z,95842.06
2023-07-24T07:57:22.164Z,95846.59
2023-07-24T08:02:26.931Z,95836.03
2023-07-24T08:07:29.814Z,95855.69
2023-07-24T08:12:32.678Z,95850.72
2023-07-24T08:17:36.903Z,95824.44
2023-07-24T08:22:39.901Z,95822.81
2023-07-24T08:28:00.687Z,95804.84
2023-07-24T08:33:06.921Z,95819.25
2023-07-24T08:38:09.846Z,95854.09
2023-07-24T08:43:14.911Z,95847.03
2023-07-24T08:48:19.798Z,95827.56
2023-07-24T08:53:23.265Z,95829.75
2023-07-24T08:58:26.154Z,95755.88
2023-07-24T09:03:30.842Z,95772.59
2023-07-24T09:08:34.725Z,95739.34
2023-07-24T09:13:38.842Z,95802.97
2023-07-24T09:18:44.144Z,95840.94
2023-07-24T09:23:47.197Z,95837.28
2023-07-24T09:28:54.477Z,95802.84
2023-07-24T09:33:59.408Z,95796.50
2023-07-24T09:39:02.885Z,95809.41
2023-07-24T09:44:05.932Z,95814.28
2023-07-24T09:49:10.261Z,95844.78
2023-07-24T09:54:17.984Z,95821.19
2023-07-24T09:59:21.866Z,95820.91
2023-07-24T10:04:26.538Z,95848.31
2023-07-24T10:09:30.769Z,95844.00
2023-07-24T10:14:35.013Z,95831.41
2023-07-24T10:19:41.429Z,95830.72
2023-07-24T10:24:44.372Z,95837.78
2023-07-24T10:29:49.964Z,95833.94
2023-07-24T10:35:01.734Z,95812.78
2023-07-24T10:40:05.524Z,95832.22
2023-07-24T10:45:09.617Z,95823.66
2023-07-24T10:50:13.894Z,95826.38
2023-07-24T10:55:16.806Z,95821.06
2023-07-24T11:00:19.679Z,95824.53
2023-07-24T11:05:24.241Z,95809.88
2023-07-24T11:10:27.331Z,95800.91
2023-07-24T11:15:30.216Z,95798.00
2023-07-24T11:20:34.460Z,95789.03
2023-07-24T11:25:40.902Z,95782.94
2023-07-24T11:30:44.652Z,95797.88
2023-07-24T11:35:48.995Z,95788.22
2023-07-24T11:40:51.972Z,95765.78
2023-07-24T11:45:56.361Z,95775.03
2023-07-24T11:51:00.576Z,95756.25
2023-07-24T11:56:03.544Z,95731.41
2023-07-24T12:01:06.456Z,95779.19
2023-07-24T12:06:17.851Z,95738.13
2023-07-24T12:11:20.822Z,95784.94
2023-07-24T12:16:23.850Z,95760.94
2023-07-24T12:21:28.265Z,95746.69
2023-07-24T12:26:31.449Z,95758.56
2023-07-24T12:31:34.707Z,95767.75
2023-07-24T12:36:39.350Z,95744.13
2023-07-24T12:41:42.249Z,95742.56
2023-07-24T12:46:45.663Z,95749.09
2023-07-24T12:51:49.903Z,95738.03
2023-07-24T12:56:53.005Z,95740.44
2023-07-24T13:01:55.935Z,95747.97
2023-07-24T13:07:01.399Z,95713.13
2023-07-24T13:12:04.486Z,95736.06
2023-07-24T13:17:08.501Z,95706.69
2023-07-24T13:22:16.616Z,95738.31
2023-07-24T13:27:19.777Z,95697.88
2023-07-24T13:32:22.699Z,95661.16
2023-07-24T13:37:26.969Z,95677.84
2023-07-24T13:42:31.448Z,95721.81
2023-07-24T13:47:35.213Z,95681.06
2023-07-24T13:52:39.453Z,95677.06
2023-07-24T13:57:42.348Z,95705.28
2023-07-24T14:02:45.307Z,95697.44
2023-07-24T14:07:49.630Z,95719.72
2023-07-24T14:12:52.656Z,95709.94
2023-07-24T14:17:55.586Z,95712.50
2023-07-24T14:22:59.925Z,95732.75
2023-07-24T14:28:02.828Z,95752.78
2023-07-24T14:33:05.799Z,95760.19
2023-07-24T14:38:10.102Z,95760.78
2023-07-24T14:43:12.994Z,95760.00
2023-07-24T14:48:17.782Z,95756.44
2023-07-24T14:53:21.986Z,95738.19
2023-07-24T14:58:24.824Z,95740.25
2023-07-24T15:03:27.819Z,95727.91
2023-07-24T15:08:32.190Z,95726.78
2023-07-24T15:13:35.094Z,95717.47
2023-07-24T15:18:38.013Z,95709.13
2023-07-24T15:23:42.314Z,95694.84
2023-07-24T15:28:47.169Z,95694.38
2023-07-24T15:33:50.057Z,95687.81
2023-07-24T15:38:54.301Z,95682.97
2023-07-24T15:43:57.160Z,95679.41
2023-07-24T15:49:00.586Z,95680.03
2023-07-24T15:54:08.192Z,95684.03
2023-07-24T15:59:11.150Z,95707.63
2023-07-24T16:04:14.037Z,95712.28
2023-07-24T16:09:18.547Z,95698.94
2023-07-24T16:14:21.759Z,95696.97
2023-07-24T16:19:24.698Z,95695.88
2023-07-24T16:24:28.974Z,95689.81
2023-07-24T16:29:33.416Z,95675.38
2023-07-24T16:34:37.597Z,95678.63
2023-07-24T16:39:41.809Z,95685.53
2023-07-24T16:44:44.782Z,95691.75
2023-07-24T16:49:47.764Z,95696.09
2023-07-24T16:54:52.625Z,95683.56
2023-07-24T16:59:57.714Z,95682.44
2023-07-24T17:05:00.887Z,95667.16
2023-07-24T17:10:06.500Z,95678.56
2023-07-24T17:15:10.095Z,95677.13
2023-07-24T17:20:13.170Z,95674.91
2023-07-24T17:25:18.682Z,95682.63
2023-07-24T17:30:23.932Z,95687.13
2023-07-24T17:35:26.952Z,95688.69
2023-07-24T17:40:31.328Z,95677.78
2023-07-24T17:45:35.363Z,95675.22
2023-07-24T17:50:38.284Z,95658.88
2023-07-24T17:55:42.638Z,95653.94
2023-07-24T18:00:47.142Z,95637.88
2023-07-24T18:05:51.594Z,95635.16
2023-07-24T18:10:55.753Z,95642.34
2023-07-24T18:15:58.730Z,95631.13
2023-07-24T18:21:08.306Z,95619.75
2023-07-24T18:26:13.318Z,95625.38
2023-07-24T18:31:16.787Z,95626.47
2023-07-24T18:36:19.849Z,95634.16
2023-07-24T18:41:24.496Z,95642.19
2023-07-24T18:46:27.410Z,95620.38
2023-07-24T18:51:30.587Z,95635.47
2023-07-24T18:56:35.043Z,95650.09
2023-07-24T19:01:38.005Z,95609.16
2023-07-24T19:06:40.938Z,95612.19
2023-07-24T19:11:45.165Z,95619.59
2023-07-24T19:16:48.080Z,95603.56
2023-07-24T19:21:50.967Z,95593.78
2023-07-24T19:26:55.206Z,95617.50
2023-07-24T19:31:58.122Z,95631.47
2023-07-24T19:37:01.822Z,95636.91
2023-07-24T19:42:07.895Z,95687.00
2023-07-24T19:47:10.774Z,95719.09
2023-07-24T19:52:13.603Z,95690.03
2023-07-24T19:57:17.802Z,95684.72
2023-07-24T20:02:20.812Z,95682.50
2023-07-24T20:07:23.829Z,95702.06
2023-07-24T20:12:28.031Z,95718.44
2023-07-24T20:17:30.945Z,95729.50
2023-07-24T20:22:33.869Z,95735.09
2023-07-24T20:27:38.167Z,95739.28
2023-07-24T20:32:41.168Z,95746.34
2023-07-24T20:37:46.213Z,95769.09
2023-07-24T20:42:50.610Z,95757.72
2023-07-24T20:47:54.205Z,95755.63
2023-07-24T20:52:57.233Z,95762.50
2023-07-24T20:58:01.486Z,95773.41
2023-07-24T21:03:04.475Z,95774.22
2023-07-24T21:08:07.948Z,95779.19
2023-07-24T21:13:12.175Z,95786.84
2023-07-24T21:18:15.039Z,95796.97
2023-07-24T21:23:17.937Z,95790.50
2023-07-24T21:28:22.271Z,95774.97
2023-07-24T21:33:25.224Z,95768.69
2023-07-24T21:38:28.232Z,95755.88
2023-07-24T21:43:32.451Z,95765.97
2023-07-24T21:48:35.311Z,95741.75
2023-07-24T21:53:38.478Z,95733.88
2023-07-24T21:58:42.673Z,95726.06
2023-07-24T22:03:45.531Z,95708.41
2023-07-24T22:08:49.119Z,95703.75
2023-07-24T22:13:53.334Z,95698.63
2023-07-24T22:18:56.211Z,95711.44
2023-07-24T22:23:59.057Z,95703.56
2023-07-24T22:29:03.242Z,95716.72
2023-07-24T22:34:06.095Z,95705.00
2023-07-24T22:39:11.170Z,95721.06
2023-07-24T22:44:15.871Z,95716.72
2023-07-24T22:49:18.935Z,95738.06
2023-07-24T22:54:21.986Z,95748.97
2023-07-24T22:59:27.194Z,95752.78
2023-07-24T23:04:30.129Z,95733.22
2023-07-24T23:09:35.163Z,95726.00
2023-07-24T23:14:39.388Z,95723.28
2023-07-24T23:19:42.251Z,95723.59
2023-07-24T23:24:45.256Z,95745.69
2023-07-24T23:29:49.526Z,95726.63
2023-07-24T23:34:53.199Z,95729.19
2023-07-24T23:39:56.081Z,95738.47
2023-07-24T23:45:00.342Z,95745.03
2023-07-24T23:50:03.221Z,95735.53
2023-07-24T23:55:07.191Z,95752.19
